createdAt,value
2017-08-03T00:00:40.220Z,10.90
2017-08-03T00:03:08.539Z,10.93
2017-08-03T00:05:37.593Z,9.40
2017-08-03T00:08:05.902Z,10.60
2017-08-03T00:10:34.308Z,16.13
2017-08-03T00:13:02.599Z,11.83
2017-08-03T00:15:30.913Z,10.53
2017-08-03T00:17:59.198Z,13.43
2017-08-03T00:20:27.568Z,11.10
2017-08-03T00:22:55.887Z,11.20
2017-08-03T00:25:24.185Z,11.70
2017-08-03T00:27:52.516Z,11.57
2017-08-03T00:30:20.824Z,11.83
2017-08-03T00:32:49.157Z,11.97
2017-08-03T00:35:17.438Z,12.53
2017-08-03T00:37:45.736Z,12.93
2017-08-03T00:40:14.160Z,11.93
2017-08-03T00:42:42.450Z,14.23
2017-08-03T00:45:10.735Z,12.23
2017-08-03T00:47:39.059Z,13.93
2017-08-03T00:50:08.115Z,14.20
2017-08-03T00:52:36.430Z,15.27
2017-08-03T00:55:04.733Z,11.30
2017-08-03T00:57:33.051Z,11.60
2017-08-03T01:00:02.141Z,12.57
2017-08-03T01:02:31.231Z,17.00
2017-08-03T01:04:59.529Z,12.53
2017-08-03T01:07:27.842Z,12.60
2017-08-03T01:09:56.207Z,13.90
2017-08-03T01:12:24.572Z,12.27
2017-08-03T01:14:52.900Z,12.70
2017-08-03T01:17:21.969Z,12.73
2017-08-03T01:19:50.292Z,14.30
2017-08-03T01:22:18.588Z,15.07
2017-08-03T01:24:47.676Z,12.20
2017-08-03T01:27:16.058Z,14.90
2017-08-03T01:29:44.378Z,11.77
2017-08-03T01:32:13.435Z,13.27
2017-08-03T01:34:41.781Z,12.90
2017-08-03T01:37:10.840Z,14.40
2017-08-03T01:39:39.137Z,13.03
2017-08-03T01:42:07.455Z,14.90
2017-08-03T01:44:36.512Z,17.37
2017-08-03T01:47:11.600Z,14.30
2017-08-03T01:49:39.895Z,13.10
2017-08-03T01:52:08.216Z,13.93
2017-08-03T01:54:36.506Z,14.20
2017-08-03T01:57:04.836Z,14.03
2017-08-03T01:59:33.167Z,16.93
2017-08-03T02:02:02.219Z,15.13
2017-08-03T02:04:30.520Z,12.87
2017-08-03T02:06:58.844Z,14.57
2017-08-03T02:09:28.812Z,15.23
2017-08-03T02:11:57.157Z,14.20
2017-08-03T02:14:25.551Z,15.87
2017-08-03T02:16:54.187Z,17.30
2017-08-03T02:19:22.503Z,15.87
2017-08-03T02:21:50.832Z,16.17
2017-08-03T02:24:19.927Z,18.00
2017-08-03T02:26:48.259Z,17.27
2017-08-03T02:29:16.542Z,16.80
2017-08-03T02:31:44.878Z,18.57
2017-08-03T02:34:13.168Z,17.20
2017-08-03T02:36:41.502Z,17.30
2017-08-03T02:39:10.112Z,16.70
2017-08-03T02:41:38.411Z,18.30
2017-08-03T02:44:06.752Z,20.40
2017-08-03T02:46:35.048Z,16.33
2017-08-03T02:49:04.152Z,18.80
2017-08-03T02:51:32.445Z,18.80
2017-08-03T02:54:01.652Z,18.70
2017-08-03T02:56:30.040Z,17.97
2017-08-03T02:58:58.354Z,20.07
2017-08-03T03:01:26.678Z,16.63
2017-08-03T03:03:54.967Z,17.20
2017-08-03T03:06:23.295Z,18.37
2017-08-03T03:08:51.672Z,18.83
2017-08-03T03:11:19.969Z,15.80
2017-08-03T03:13:48.282Z,16.70
2017-08-03T03:16:17.338Z,17.20
2017-08-03T03:18:45.666Z,16.80
2017-08-03T03:21:13.969Z,15.53
2017-08-03T03:23:43.028Z,17.00
2017-08-03T03:26:11.351Z,18.17
2017-08-03T03:28:39.688Z,18.80
2017-08-03T03:31:07.980Z,17.83
2017-08-03T03:33:36.295Z,21.03
2017-08-03T03:36:04.591Z,18.40
2017-08-03T03:38:32.930Z,18.47
2017-08-03T03:41:01.284Z,20.33
2017-08-03T03:43:29.667Z,19.23
2017-08-03T03:45:57.994Z,19.83
2017-08-03T03:48:26.351Z,21.30
2017-08-03T03:50:54.748Z,20.80
2017-08-03T03:53:23.066Z,18.00
2017-08-03T03:55:51.359Z,22.37
2017-08-03T03:58:19.720Z,20.10
2017-08-03T04:00:48.052Z,18.37
2017-08-03T04:03:16.335Z,19.50
2017-08-03T04:05:44.658Z,21.17
2017-08-03T04:08:13.076Z,19.33
2017-08-03T04:10:41.375Z,20.90
2017-08-03T04:13:10.468Z,31.23
2017-08-03T04:15:38.760Z,19.40
2017-08-03T04:18:07.081Z,20.67
2017-08-03T04:20:36.130Z,19.50
2017-08-03T04:23:04.446Z,19.93
2017-08-03T04:25:32.783Z,19.33
2017-08-03T04:28:01.116Z,18.30
2017-08-03T04:30:29.510Z,20.90
2017-08-03T04:32:57.807Z,18.80
2017-08-03T04:35:26.164Z,20.57
2017-08-03T04:37:54.492Z,20.97
2017-08-03T04:40:22.780Z,19.77
2017-08-03T04:42:51.099Z,18.30
2017-08-03T04:45:19.451Z,19.67
2017-08-03T04:47:48.138Z,19.97
2017-08-03T04:50:16.424Z,21.10
2017-08-03T04:52:44.758Z,19.63
2017-08-03T04:55:13.820Z,19.83
2017-08-03T04:57:42.143Z,19.87
2017-08-03T05:00:11.191Z,19.10
2017-08-03T05:02:39.520Z,18.50
2017-08-03T05:05:07.806Z,18.47
2017-08-03T05:07:36.136Z,19.00
2017-08-03T05:10:05.220Z,20.23
2017-08-03T05:12:33.534Z,19.90
2017-08-03T05:15:01.855Z,20.80
2017-08-03T05:17:30.190Z,20.60
2017-08-03T05:19:58.516Z,27.23
2017-08-03T05:22:26.859Z,18.80
2017-08-03T05:24:55.193Z,22.13
2017-08-03T05:27:23.474Z,23.67
2017-08-03T05:29:51.815Z,22.73
2017-08-03T05:32:20.215Z,20.00
2017-08-03T05:34:48.516Z,23.30
2017-08-03T05:37:16.836Z,20.90
2017-08-03T05:39:45.118Z,22.13
2017-08-03T05:42:13.479Z,22.83
2017-08-03T05:44:41.772Z,26.07
2017-08-03T05:47:10.091Z,24.10
2017-08-03T05:49:38.424Z,21.70
2017-08-03T05:52:06.710Z,21.07
2017-08-03T05:54:34.994Z,22.80
2017-08-03T05:57:03.348Z,22.87
2017-08-03T05:59:31.656Z,22.37
2017-08-03T06:01:59.934Z,21.67
2017-08-03T06:04:28.273Z,20.20
2017-08-03T06:06:56.666Z,23.93
2017-08-03T06:09:24.996Z,22.87
2017-08-03T06:11:53.297Z,24.87
2017-08-03T06:14:21.626Z,23.50
2017-08-03T06:16:49.945Z,21.47
2017-08-03T06:19:19.016Z,24.57
2017-08-03T06:21:47.344Z,23.40
2017-08-03T06:24:16.398Z,22.37
2017-08-03T06:26:44.687Z,22.73
2017-08-03T06:29:13.029Z,22.07
2017-08-03T06:31:42.116Z,22.37
2017-08-03T06:34:10.452Z,24.23
2017-08-03T06:36:38.798Z,22.40
2017-08-03T06:39:07.126Z,22.70
2017-08-03T06:41:35.459Z,21.73
2017-08-03T06:44:03.775Z,21.30
2017-08-03T06:46:32.067Z,20.67
2017-08-03T06:49:00.395Z,22.57
2017-08-03T06:51:28.724Z,21.80
2017-08-03T06:53:57.057Z,21.47
2017-08-03T06:56:26.102Z,21.07
2017-08-03T06:58:54.426Z,21.10
2017-08-03T07:01:22.728Z,23.53
2017-08-03T07:03:51.924Z,21.57
2017-08-03T07:06:20.310Z,21.33
2017-08-03T07:08:48.617Z,21.27
2017-08-03T07:11:17.699Z,22.67
2017-08-03T07:13:46.000Z,20.57
2017-08-03T07:16:14.327Z,19.30
2017-08-03T07:18:42.624Z,18.60
2017-08-03T07:21:10.946Z,17.20
2017-08-03T07:23:39.272Z,18.30
2017-08-03T07:26:08.340Z,16.27
2017-08-03T07:28:36.676Z,18.03
2017-08-03T07:31:05.785Z,18.73
2017-08-03T07:33:34.830Z,17.70
2017-08-03T07:36:03.172Z,20.40
2017-08-03T07:38:31.463Z,17.63
2017-08-03T07:41:00.550Z,17.47
2017-08-03T07:43:28.888Z,17.30
2017-08-03T07:45:57.189Z,17.13
2017-08-03T07:48:25.466Z,16.30
2017-08-03T07:50:53.810Z,18.83
2017-08-03T07:53:22.108Z,18.50
2017-08-03T07:55:50.442Z,17.27
2017-08-03T07:58:18.763Z,17.20
2017-08-03T08:00:47.051Z,19.07
2017-08-03T08:03:15.352Z,18.33
2017-08-03T08:05:43.685Z,18.17
2017-08-03T08:08:12.020Z,19.23
2017-08-03T08:10:40.308Z,19.10
2017-08-03T08:13:08.609Z,18.80
2017-08-03T08:15:36.923Z,18.60
2017-08-03T08:18:06.009Z,16.60
2017-08-03T08:20:34.314Z,16.60
2017-08-03T08:23:02.643Z,17.80
2017-08-03T08:25:30.964Z,15.57
2017-08-03T08:27:59.254Z,15.83
2017-08-03T08:30:27.584Z,13.60
2017-08-03T08:32:56.643Z,12.37
2017-08-03T08:35:24.981Z,12.00
2017-08-03T08:37:54.030Z,10.40
2017-08-03T08:40:22.342Z,10.50
2017-08-03T08:42:50.674Z,10.87
2017-08-03T08:45:19.715Z,10.50
2017-08-03T08:47:48.046Z,11.53
2017-08-03T08:50:16.341Z,10.07
2017-08-03T08:52:44.627Z,11.20
2017-08-03T08:55:12.948Z,9.93
2017-08-03T08:57:41.237Z,9.87
2017-08-03T09:00:09.524Z,10.43
2017-08-03T09:02:38.683Z,10.30
2017-08-03T09:05:06.964Z,9.87
2017-08-03T09:07:35.286Z,10.80
2017-08-03T09:10:03.581Z,9.60
2017-08-03T09:12:31.859Z,10.60
2017-08-03T09:15:00.175Z,8.03
2017-08-03T09:17:28.489Z,9.23
2017-08-03T09:19:56.763Z,9.93
2017-08-03T09:22:25.084Z,9.00
2017-08-03T09:24:53.400Z,8.80
2017-08-03T09:27:21.678Z,9.70
2017-08-03T09:29:49.991Z,9.47
2017-08-03T09:32:18.316Z,10.50
2017-08-03T09:34:46.612Z,9.93
2017-08-03T09:37:14.887Z,10.30
2017-08-03T09:39:43.198Z,9.60
2017-08-03T09:42:11.511Z,14.40
2017-08-03T09:44:39.844Z,10.40
2017-08-03T09:47:08.891Z,10.20
2017-08-03T09:49:37.187Z,10.70
2017-08-03T09:52:05.499Z,11.47
2017-08-03T09:54:33.790Z,14.20
2017-08-03T09:57:02.115Z,12.23
2017-08-03T09:59:30.407Z,13.67
2017-08-03T10:01:58.740Z,12.40
2017-08-03T10:04:27.031Z,12.77
2017-08-03T10:06:55.328Z,13.20
2017-08-03T10:09:23.664Z,15.20
2017-08-03T10:11:51.952Z,12.83
2017-08-03T10:14:20.279Z,13.47
2017-08-03T10:16:48.579Z,14.23
2017-08-03T10:19:16.894Z,13.10
2017-08-03T10:21:45.994Z,14.47
2017-08-03T10:24:14.293Z,13.93
2017-08-03T10:26:43.351Z,15.70
2017-08-03T10:29:11.693Z,12.57
2017-08-03T10:31:40.779Z,13.83
2017-08-03T10:34:09.099Z,14.27
2017-08-03T10:36:38.166Z,14.83
2017-08-03T10:39:06.485Z,11.90
2017-08-03T10:41:35.566Z,11.10
2017-08-03T10:44:03.869Z,12.77
2017-08-03T10:46:32.200Z,11.20
2017-08-03T10:49:00.496Z,12.30
2017-08-03T10:51:28.815Z,12.47
2017-08-03T10:53:57.098Z,10.60
2017-08-03T10:56:25.415Z,11.77
2017-08-03T10:58:53.744Z,10.90
2017-08-03T11:01:22.080Z,12.07
2017-08-03T11:03:50.407Z,11.97
2017-08-03T11:06:19.512Z,16.73
2017-08-03T11:08:48.599Z,12.47
2017-08-03T11:11:16.937Z,11.73
2017-08-03T11:13:45.269Z,10.93
2017-08-03T11:16:13.582Z,11.67
2017-08-03T11:18:41.888Z,11.47
2017-08-03T11:21:10.970Z,12.20
2017-08-03T11:23:39.251Z,9.97
2017-08-03T11:26:07.535Z,13.60
2017-08-03T11:28:35.867Z,12.73
2017-08-03T11:31:04.911Z,9.90
2017-08-03T11:33:33.191Z,10.70
2017-08-03T11:36:01.506Z,10.73
2017-08-03T11:38:29.822Z,11.43
2017-08-03T11:40:58.910Z,10.47
2017-08-03T11:43:27.250Z,18.43
2017-08-03T11:45:55.547Z,13.17
2017-08-03T11:48:23.864Z,9.63
2017-08-03T11:50:52.144Z,8.47
2017-08-03T11:53:20.451Z,9.17
2017-08-03T11:55:48.771Z,9.87
2017-08-03T11:58:17.829Z,12.80
2017-08-03T12:00:46.144Z,7.63
2017-08-03T12:03:14.459Z,6.23
2017-08-03T12:05:43.515Z,8.80
2017-08-03T12:08:11.826Z,7.97
2017-08-03T12:10:40.102Z,7.67
2017-08-03T12:13:08.387Z,5.27
2017-08-03T12:15:36.703Z,7.00
2017-08-03T12:18:05.386Z,7.17
2017-08-03T12:20:33.673Z,5.30
2017-08-03T12:23:01.997Z,6.97
2017-08-03T12:25:31.048Z,9.93
2017-08-03T12:27:59.582Z,5.67
2017-08-03T12:30:27.876Z,4.90
2017-08-03T12:32:56.168Z,11.43
2017-08-03T12:35:24.494Z,4.67
2017-08-03T12:37:52.784Z,7.23
2017-08-03T12:40:21.095Z,6.73
2017-08-03T12:42:49.375Z,5.70
2017-08-03T12:45:17.690Z,6.03
2017-08-03T12:47:45.966Z,7.60
2017-08-03T12:50:14.375Z,5.57
2017-08-03T12:52:42.668Z,6.43
2017-08-03T12:55:10.988Z,8.10
2017-08-03T12:57:40.080Z,7.30
2017-08-03T13:00:08.387Z,6.60
2017-08-03T13:02:37.434Z,5.93
2017-08-03T13:05:05.724Z,5.90
2017-08-03T13:07:34.034Z,5.13
2017-08-03T13:10:02.346Z,6.70
2017-08-03T13:12:31.390Z,5.07
2017-08-03T13:14:59.667Z,6.00
2017-08-03T13:17:27.993Z,8.97
2017-08-03T13:19:56.280Z,10.13
2017-08-03T13:22:24.572Z,7.00
2017-08-03T13:24:52.893Z,7.70
2017-08-03T13:27:21.166Z,5.87
2017-08-03T13:29:49.442Z,5.93
2017-08-03T13:32:17.755Z,6.30
2017-08-03T13:34:46.041Z,7.27
2017-08-03T13:37:14.356Z,7.30
2017-08-03T13:39:43.412Z,7.07
2017-08-03T13:42:11.732Z,7.70
2017-08-03T13:44:40.052Z,7.43
2017-08-03T13:47:08.338Z,5.77
2017-08-03T13:49:37.427Z,9.80
2017-08-03T13:52:05.716Z,5.93
2017-08-03T13:54:34.026Z,6.83
2017-08-03T13:57:02.351Z,9.33
2017-08-03T13:59:30.640Z,8.73
2017-08-03T14:01:58.923Z,6.73
2017-08-03T14:04:27.244Z,6.83
2017-08-03T14:06:55.564Z,5.73
2017-08-03T14:09:24.606Z,6.43
2017-08-03T14:11:53.031Z,6.20
2017-08-03T14:14:21.333Z,5.90
2017-08-03T14:16:49.607Z,6.60
2017-08-03T14:19:17.933Z,5.50
2017-08-03T14:21:46.984Z,8.93
2017-08-03T14:24:15.303Z,8.20
2017-08-03T14:26:43.586Z,8.10
2017-08-03T14:29:11.985Z,6.77
2017-08-03T14:31:40.268Z,6.77
2017-08-03T14:34:08.547Z,5.67
2017-08-03T14:36:36.872Z,5.90
2017-08-03T14:39:05.955Z,8.77
2017-08-03T14:41:34.239Z,6.70
2017-08-03T14:44:02.519Z,5.87
2017-08-03T14:46:30.849Z,12.40
2017-08-03T14:49:00.226Z,9.20
2017-08-03T14:51:28.534Z,6.00
2017-08-03T14:53:56.864Z,7.80
2017-08-03T14:56:25.139Z,6.83
2017-08-03T14:58:53.460Z,6.37
2017-08-03T15:01:21.748Z,6.50
2017-08-03T15:03:50.054Z,5.13
2017-08-03T15:06:18.330Z,7.13
2017-08-03T15:08:46.658Z,8.40
2017-08-03T15:11:14.967Z,6.50
2017-08-03T15:13:44.010Z,5.73
2017-08-03T15:16:12.337Z,5.57
2017-08-03T15:18:40.669Z,5.83
2017-08-03T15:21:08.955Z,7.70
2017-08-03T15:23:37.705Z,5.50
2017-08-03T15:26:06.198Z,5.37
2017-08-03T15:28:34.499Z,5.13
2017-08-03T15:31:02.810Z,7.30
2017-08-03T15:33:31.892Z,5.77
2017-08-03T15:36:00.172Z,4.73
2017-08-03T15:38:28.581Z,5.40
2017-08-03T15:40:56.955Z,5.60
2017-08-03T15:43:25.236Z,4.33
2017-08-03T15:45:53.542Z,6.00
2017-08-03T15:48:21.822Z,7.33
2017-08-03T15:50:50.142Z,6.20
2017-08-03T15:53:19.196Z,7.23
2017-08-03T15:55:47.481Z,6.33
2017-08-03T15:58:15.801Z,6.63
2017-08-03T16:00:44.124Z,7.23
2017-08-03T16:03:13.166Z,6.00
2017-08-03T16:05:41.456Z,8.57
2017-08-03T16:08:09.786Z,7.73
2017-08-03T16:10:38.058Z,10.83
2017-08-03T16:13:06.409Z,12.27
2017-08-03T16:15:34.702Z,10.33
2017-08-03T16:18:02.988Z,8.10
2017-08-03T16:20:31.319Z,8.80
2017-08-03T16:22:59.612Z,7.90
2017-08-03T16:25:27.927Z,9.37
2017-08-03T16:27:57.016Z,23.23
2017-08-03T16:30:25.403Z,14.47
2017-08-03T16:32:53.794Z,10.23
2017-08-03T16:35:22.200Z,8.87
2017-08-03T16:37:50.501Z,3.03
2017-08-03T16:40:18.810Z,3.37
2017-08-03T16:42:47.100Z,7.00
2017-08-03T16:45:15.420Z,10.50
2017-08-03T16:47:44.635Z,6.10
2017-08-03T16:50:12.915Z,5.30
2017-08-03T16:52:41.236Z,8.07
2017-08-03T16:55:09.511Z,6.07
2017-08-03T16:57:37.786Z,3.63
2017-08-03T17:00:06.098Z,7.60
2017-08-03T17:02:34.378Z,11.27
2017-08-03T17:05:02.689Z,5.80
2017-08-03T17:07:30.980Z,5.37
2017-08-03T17:09:59.287Z,8.37
2017-08-03T17:12:28.354Z,6.63
2017-08-03T17:14:56.759Z,7.70
2017-08-03T17:17:25.048Z,7.77
2017-08-03T17:19:53.366Z,13.07
2017-08-03T17:22:22.471Z,7.63
2017-08-03T17:24:50.744Z,8.33
2017-08-03T17:27:19.076Z,11.73
2017-08-03T17:29:47.366Z,7.53
2017-08-03T17:32:15.995Z,9.50
2017-08-03T17:34:44.312Z,6.37
2017-08-03T17:37:12.624Z,5.27
2017-08-03T17:39:40.938Z,7.90
2017-08-03T17:42:09.272Z,6.67
2017-08-03T17:44:37.550Z,6.60
2017-08-03T17:47:05.876Z,9.40
2017-08-03T17:49:34.946Z,5.90
2017-08-03T17:52:03.222Z,8.73
2017-08-03T17:54:31.560Z,8.80
2017-08-03T17:57:00.621Z,10.73
2017-08-03T17:59:28.909Z,7.73
2017-08-03T18:01:57.229Z,9.77
2017-08-03T18:04:25.521Z,6.50
2017-08-03T18:06:53.832Z,7.27
2017-08-03T18:09:22.874Z,9.73
2017-08-03T18:11:51.194Z,9.70
2017-08-03T18:14:19.507Z,9.53
2017-08-03T18:16:47.795Z,8.73
2017-08-03T18:19:16.121Z,7.40
2017-08-03T18:21:44.431Z,10.30
2017-08-03T18:24:12.716Z,7.70
2017-08-03T18:26:41.041Z,6.70
2017-08-03T18:29:09.314Z,7.47
2017-08-03T18:31:37.605Z,7.57
2017-08-03T18:34:05.964Z,7.07
2017-08-03T18:36:34.296Z,8.43
2017-08-03T18:39:02.613Z,8.87
2017-08-03T18:41:31.683Z,8.37
2017-08-03T18:43:59.992Z,8.90
2017-08-03T18:46:29.052Z,10.60
2017-08-03T18:48:57.385Z,10.77
2017-08-03T18:51:25.679Z,7.87
2017-08-03T18:53:53.987Z,14.53
2017-08-03T18:56:22.343Z,8.50
2017-08-03T18:58:50.659Z,14.70
2017-08-03T19:01:19.850Z,15.23
2017-08-03T19:03:48.176Z,9.60
2017-08-03T19:06:16.497Z,11.90
2017-08-03T19:08:44.806Z,11.53
2017-08-03T19:11:13.102Z,13.23
2017-08-03T19:13:41.444Z,12.83
2017-08-03T19:16:09.743Z,12.27
2017-08-03T19:18:38.073Z,13.83
2017-08-03T19:21:06.373Z,17.57
2017-08-03T19:23:35.458Z,15.47
2017-08-03T19:26:03.774Z,13.33
2017-08-03T19:28:32.842Z,14.53
2017-08-03T19:31:01.164Z,13.10
2017-08-03T19:33:30.274Z,16.87
2017-08-03T19:35:59.327Z,17.00
2017-08-03T19:38:27.728Z,15.73
2017-08-03T19:40:56.028Z,16.70
2017-08-03T19:43:24.314Z,13.77
2017-08-03T19:45:52.634Z,17.67
2017-08-03T19:48:20.954Z,14.00
2017-08-03T19:50:49.279Z,15.37
2017-08-03T19:53:17.576Z,13.57
2017-08-03T19:55:45.869Z,18.77
2017-08-03T19:58:14.188Z,14.40
2017-08-03T20:00:43.256Z,15.90
2017-08-03T20:03:11.584Z,12.90
2017-08-03T20:05:41.633Z,13.47
2017-08-03T20:08:10.719Z,15.30
2017-08-03T20:10:44.123Z,14.20
2017-08-03T20:13:18.418Z,13.50
2017-08-03T20:15:46.712Z,14.10
2017-08-03T20:18:15.005Z,14.07
2017-08-03T20:20:43.319Z,16.10
2017-08-03T20:23:11.668Z,12.77
2017-08-03T20:25:41.955Z,15.70
2017-08-03T20:28:11.723Z,15.93
2017-08-03T20:30:40.015Z,13.53
2017-08-03T20:33:08.307Z,14.77
2017-08-03T20:35:36.646Z,12.93
2017-08-03T20:38:04.953Z,14.73
2017-08-03T20:40:34.052Z,14.20
2017-08-03T20:43:03.164Z,15.37
2017-08-03T20:45:32.228Z,15.30
2017-08-03T20:48:00.515Z,12.00
2017-08-03T20:50:28.893Z,10.87
2017-08-03T20:52:57.232Z,11.57
2017-08-03T20:55:25.909Z,11.70
2017-08-03T20:57:54.229Z,9.23
2017-08-03T21:00:23.319Z,9.40
2017-08-03T21:02:51.648Z,8.23
2017-08-03T21:05:19.964Z,8.27
2017-08-03T21:07:48.264Z,6.77
2017-08-03T21:10:16.584Z,7.67
2017-08-03T21:12:44.962Z,7.53
2017-08-03T21:15:13.259Z,7.63
2017-08-03T21:17:41.577Z,5.40
2017-08-03T21:20:10.619Z,7.23
2017-08-03T21:22:38.940Z,7.37
2017-08-03T21:25:08.048Z,6.80
2017-08-03T21:27:36.452Z,8.03
2017-08-03T21:30:04.778Z,7.90
2017-08-03T21:32:33.140Z,10.13
2017-08-03T21:35:01.451Z,6.70
2017-08-03T21:37:37.163Z,7.63
2017-08-03T21:40:07.923Z,8.50
2017-08-03T21:45:20.164Z,8.43
2017-08-03T21:47:48.470Z,7.33
2017-08-03T21:50:16.789Z,6.90
2017-08-03T21:52:45.095Z,9.40
2017-08-03T21:55:14.163Z,7.80
2017-08-03T21:57:42.480Z,7.33
2017-08-03T22:00:11.536Z,8.47
2017-08-03T22:02:39.959Z,8.67
2017-08-03T22:05:08.238Z,10.00
2017-08-03T22:07:36.649Z,9.73
2017-08-03T22:10:04.935Z,8.90
2017-08-03T22:12:33.316Z,13.90
2017-08-03T22:15:01.607Z,9.53
2017-08-03T22:17:29.933Z,13.10
2017-08-03T22:19:58.224Z,9.60
2017-08-03T22:22:26.531Z,8.30
2017-08-03T22:24:54.876Z,13.03
2017-08-03T22:27:23.935Z,10.83
2017-08-03T22:29:52.262Z,8.83
2017-08-03T22:32:20.646Z,12.43
2017-08-03T22:34:49.053Z,11.30
2017-08-03T22:37:17.444Z,11.03
2017-08-03T22:39:45.726Z,9.13
2017-08-03T22:42:14.031Z,8.87
2017-08-03T22:44:43.119Z,8.33
2017-08-03T22:47:11.434Z,18.63
2017-08-03T22:49:40.489Z,8.30
2017-08-03T22:52:08.803Z,8.37
2017-08-03T22:54:37.088Z,9.77
2017-08-03T22:57:05.484Z,6.97
2017-08-03T22:59:33.784Z,9.50
2017-08-03T23:02:02.098Z,9.73
2017-08-03T23:04:31.148Z,9.87
2017-08-03T23:06:59.475Z,9.60
2017-08-03T23:09:27.855Z,8.70
2017-08-03T23:11:56.151Z,9.30
2017-08-03T23:14:24.481Z,9.10
2017-08-03T23:16:52.804Z,7.13
2017-08-03T23:19:21.131Z,8.90
2017-08-03T23:21:49.416Z,9.03
2017-08-03T23:24:17.790Z,7.23
2017-08-03T23:26:46.081Z,8.50
2017-08-03T23:29:14.390Z,9.67
2017-08-03T23:31:43.475Z,7.30
2017-08-03T23:34:11.773Z,10.30
2017-08-03T23:36:40.101Z,7.90
2017-08-03T23:39:08.388Z,10.50
2017-08-03T23:41:36.701Z,13.37
2017-08-03T23:44:05.004Z,14.87
2017-08-03T23:46:33.279Z,10.43
2017-08-03T23:49:01.616Z,11.90
2017-08-03T23:51:29.937Z,9.03
2017-08-03T23:53:58.209Z,8.47
2017-08-03T23:56:27.303Z,13.77
2017-08-03T23:58:55.623Z,14.03
